Time;durP1;ratioP1;P1;durP2;ratioP2;P2;SDS_P1;SDS_P2;PMS_P1;PMS_P2;Temp;Humidity;BMP_temperature;BMP_pressure;BME280_temperature;BME280_humidity;BME280_pressure;Samples;Min_cycle;Max_cycle;Signal;HPM_P1;HPM_P2
2024/02/15 00:02:16;;;;;;;;;0.00;0.00;;;;;16.85;100.00;101549.47;5075742;28;69514;-81
2024/02/15 00:04:42;;;;;;;;;0.00;0.00;;;;;16.79;100.00;101544.41;5077475;28;45661;-81
2024/02/15 00:07:07;;;;;;;;;0.00;0.00;;;;;16.78;100.00;101547.97;5077846;28;45369;-81
2024/02/15 00:09:33;;;;;;;;;0.00;0.00;;;;;16.68;100.00;101546.63;5077377;28;52141;-81
2024/02/15 00:11:59;;;;;;;;;0.00;0.00;;;;;16.64;100.00;101533.66;5076916;28;70693;-81
2024/02/15 00:14:25;;;;;;;;;0.00;0.00;;;;;16.68;100.00;101534.38;5077704;27;46391;-81
2024/02/15 00:16:51;;;;;;;;;0.00;0.00;;;;;16.65;100.00;101529.22;5077775;28;45601;-81
2024/02/15 00:19:17;;;;;;;;;0.00;0.00;;;;;16.69;100.00;101520.28;5076637;28;60982;-81
2024/02/15 00:21:45;;;;;;;;;0.00;0.00;;;;;16.68;100.00;101520.34;5077688;27;45484;-80
2024/02/15 00:24:11;;;;;;;;;0.00;0.00;;;;;16.68;100.00;101523.84;5077157;27;45528;-81
2024/02/15 00:26:36;;;;;;;;;0.00;0.00;;;;;16.65;100.00;101521.34;5077398;28;45339;-81
2024/02/15 00:29:01;;;;;;;;;36.00;36.00;;;;;16.59;100.00;101509.31;5075143;28;69343;-81
2024/02/15 00:31:27;;;;;;;;;0.00;0.00;;;;;16.55;100.00;101507.75;5076699;28;63693;-81
2024/02/15 00:33:53;;;;;;;;;0.00;0.00;;;;;16.60;100.00;101511.03;5076122;27;74542;-80
2024/02/15 00:36:19;;;;;;;;;0.00;0.00;;;;;16.59;100.00;101508.47;5077273;27;45298;-80
2024/02/15 00:38:45;;;;;;;;;0.00;0.00;;;;;16.62;100.00;101503.06;5076213;28;45445;-81
2024/02/15 00:41:10;;;;;;;;;0.00;0.00;;;;;16.58;100.00;101493.59;5077280;27;45287;-80
2024/02/15 00:43:36;;;;;;;;;0.00;0.00;;;;;16.59;100.00;101490.06;5077160;27;45583;-80
2024/02/15 00:46:01;;;;;;;;;0.00;0.00;;;;;16.59;100.00;101495.34;5076725;27;61816;-81
2024/02/15 00:48:28;;;;;;;;;0.00;0.00;;;;;16.54;100.00;101492.88;5076826;28;45393;-80
2024/02/15 00:50:54;;;;;;;;;0.00;0.00;;;;;16.52;100.00;101492.09;5077035;27;45405;-81
2024/02/15 00:53:20;;;;;;;;;0.00;0.00;;;;;16.55;100.00;101494.59;5077027;28;46776;-80
2024/02/15 00:55:45;;;;;;;;;0.00;0.00;;;;;16.54;100.00;101490.25;5077209;28;45416;-80
2024/02/15 00:58:11;;;;;;;;;0.00;0.00;;;;;16.62;100.00;101493.44;5077030;27;45386;-81
2024/02/15 01:00:36;;;;;;;;;0.00;0.00;;;;;16.63;100.00;101491.66;5075949;27;70205;-81
2024/02/15 01:03:01;;;;;;;;;12.00;12.00;;;;;16.65;100.00;101497.69;5076223;27;48220;-81
2024/02/15 01:05:27;;;;;;;;;0.00;0.00;;;;;16.65;100.00;101495.06;5075845;28;72957;-81
2024/02/15 01:07:52;;;;;;;;;0.00;0.00;;;;;16.64;100.00;101493.34;5076826;27;45466;-80
2024/02/15 01:10:18;;;;;;;;;0.25;0.25;;;;;16.67;100.00;101487.97;5076791;28;45343;-81
2024/02/15 01:12:44;;;;;;;;;0.00;0.00;;;;;16.63;100.00;101489.88;5076822;28;45415;-81
2024/02/15 01:15:09;;;;;;;;;0.00;0.00;;;;;16.71;100.00;101475.53;5075348;28;45440;-81
2024/02/15 01:17:35;;;;;;;;;0.00;0.00;;;;;16.75;100.00;101483.25;5075378;28;68101;-81
2024/02/15 01:20:00;;;;;;;;;0.00;0.00;;;;;16.73;100.00;101482.44;5076860;28;45342;-81
2024/02/15 01:22:26;;;;;;;;;0.00;0.00;;;;;16.72;100.00;101479.91;5075567;27;75606;-81
2024/02/15 01:24:52;;;;;;;;;0.00;0.00;;;;;16.70;100.00;101479.09;5075886;27;45417;-81
2024/02/15 01:27:19;;;;;;;;;0.00;0.00;;;;;16.68;100.00;101476.53;5076694;28;45317;-81
2024/02/15 01:29:45;;;;;;;;;0.00;0.00;;;;;16.60;100.00;101473.38;5077012;28;61834;-81
2024/02/15 01:32:10;;;;;;;;;0.00;0.00;;;;;16.56;100.00;101477.06;5076189;28;46356;-81
2024/02/15 01:34:35;;;;;;;;;15.00;3.00;;;;;16.53;100.00;101477.16;5076542;28;45327;-81
2024/02/15 01:37:01;;;;;;;;;0.00;0.00;;;;;16.50;100.00;101479.94;5076425;27;46272;-81
2024/02/15 01:39:26;;;;;;;;;0.00;0.00;;;;;16.49;100.00;101475.59;5075085;28;45354;-81
2024/02/15 01:41:55;;;;;;;;;0.00;0.00;;;;;16.49;100.00;101475.59;5075131;28;47337;-81
2024/02/15 01:44:21;;;;;;;;;0.00;0.00;;;;;16.46;100.00;101476.59;5076354;28;45275;-81
2024/02/15 01:46:48;;;;;;;;;0.00;0.00;;;;;16.41;100.00;101471.50;5074884;28;45354;-81
2024/02/15 01:49:15;;;;;;;;;0.00;0.00;;;;;16.40;100.00;101480.34;5074958;28;45397;-81
2024/02/15 01:51:43;;;;;;;;;0.00;0.00;;;;;16.41;100.00;101474.13;5074907;28;45436;-81
2024/02/15 01:54:09;;;;;;;;;0.00;0.00;;;;;16.39;100.00;101473.34;5075446;28;45438;-81
2024/02/15 01:56:34;;;;;;;;;0.00;0.00;;;;;16.41;100.00;101475.91;5075044;28;45422;-81
2024/02/15 01:59:01;;;;;;;;;0.00;0.00;;;;;16.41;100.00;101468.88;5073786;28;70489;-81
2024/02/15 02:01:27;;;;;;;;;0.00;0.00;;;;;16.34;100.00;101474.47;5074502;28;47177;-81
2024/02/15 02:03:52;;;;;;;;;0.00;0.00;;;;;16.28;100.00;101466.84;5074891;28;45431;-81
2024/02/15 02:06:18;;;;;;;;;0.00;0.00;;;;;16.33;100.00;101457.84;5074070;28;65704;-81
2024/02/15 02:08:43;;;;;;;;;0.00;0.00;;;;;16.31;100.00;101464.09;5073686;28;69436;-81
2024/02/15 02:11:09;;;;;;;;;0.00;0.00;;;;;16.32;100.00;101457.91;5078220;28;49152;-81
2024/02/15 02:13:35;;;;;;;;;0.00;0.00;;;;;16.35;100.00;101460.44;5079505;27;45329;-81
2024/02/15 02:16:00;;;;;;;;;0.00;0.00;;;;;16.35;100.00;101450.75;5078050;28;45957;-81
2024/02/15 02:18:25;;;;;;;;;0.00;0.00;;;;;16.23;100.00;101454.75;5077333;28;69531;-81
2024/02/15 02:20:51;;;;;;;;;0.00;0.00;;;;;16.18;100.00;101454.09;5077134;28;75361;-81
2024/02/15 02:23:18;;;;;;;;;0.00;0.00;;;;;16.18;100.00;101446.22;5076887;28;72120;-81
2024/02/15 02:25:44;;;;;;;;;0.00;0.00;;;;;16.18;100.00;101442.72;5079197;27;45471;-80
2024/02/15 02:28:10;;;;;;;;;0.00;0.00;;;;;16.18;100.00;101437.47;5079323;28;45363;-81
2024/02/15 02:30:35;;;;;;;;;0.00;0.00;;;;;16.16;100.00;101428.81;5060763;28;46823;-81
2024/02/15 02:33:01;;;;;;;;;0.00;0.00;;;;;16.13;100.00;101428.94;5078506;28;66972;-81
2024/02/15 02:35:29;;;;;;;;;0.00;0.00;;;;;16.10;100.00;101423.78;5079437;27;45374;-81
2024/02/15 02:37:55;;;;;;;;;0.00;0.00;;;;;16.06;100.00;101429.19;5079248;27;45483;-81
2024/02/15 02:40:21;;;;;;;;;0.00;0.00;;;;;16.02;100.00;101421.50;5079036;28;45408;-80
2024/02/15 02:42:51;;;;;;;;;0.00;0.00;;;;;15.98;100.00;101412.03;5077805;28;45439;-81
2024/02/15 02:45:17;;;;;;;;;0.00;0.00;;;;;15.94;100.00;101406.06;5077700;28;45321;-81
2024/02/15 02:47:42;;;;;;;;;0.00;0.00;;;;;15.94;100.00;101405.22;5079025;27;45410;-81
2024/02/15 02:50:08;;;;;;;;;0.00;0.00;;;;;15.86;100.00;101394.97;5077750;27;74107;-81
2024/02/15 02:52:33;;;;;;;;;0.00;0.00;;;;;15.83;100.00;101405.63;5078831;28;45437;-81
2024/02/15 02:54:59;;;;;;;;;0.00;0.00;;;;;15.85;100.00;101396.78;5077869;28;45361;-81
2024/02/15 02:57:24;;;;;;;;;0.00;0.00;;;;;15.81;100.00;101394.34;5077608;28;45273;-81
2024/02/15 02:59:51;;;;;;;;;0.00;0.00;;;;;15.79;100.00;101388.31;5077348;28;70337;-81
2024/02/15 03:02:17;;;;;;;;;0.00;0.00;;;;;15.70;100.00;101393.88;5078730;28;45320;-81
2024/02/15 03:04:42;;;;;;;;;0.00;0.00;;;;;15.70;100.00;101384.25;5077712;27;45329;-81
2024/02/15 03:07:08;;;;;;;;;0.00;0.00;;;;;15.65;100.00;101380.94;5081156;28;45346;-80
2024/02/15 03:09:34;;;;;;;;;0.00;0.00;;;;;15.63;100.00;101386.25;5080867;27;47287;-81
2024/02/15 03:12:01;;;;;;;;;0.00;0.00;;;;;15.71;100.00;101387.72;5079013;28;45385;-79
2024/02/15 03:14:26;;;;;;;;;0.00;0.00;;;;;15.71;100.00;101378.06;5078507;28;45394;-81
2024/02/15 03:16:51;;;;;;;;;0.00;0.00;;;;;15.72;100.00;101374.53;5077452;28;49086;-81
2024/02/15 03:19:17;;;;;;;;;0.00;0.00;;;;;15.73;100.00;101384.13;5077720;28;73591;-81
2024/02/15 03:21:46;;;;;;;;;0.00;0.00;;;;;15.72;100.00;101373.69;5075232;28;72390;-80
2024/02/15 03:24:11;;;;;;;;;0.00;0.00;;;;;15.72;100.00;101376.31;5078315;27;45520;-80
2024/02/15 03:26:38;;;;;;;;;0.00;0.00;;;;;15.66;100.00;101373.00;5077483;28;45431;-80
2024/02/15 03:29:04;;;;;;;;;0.00;0.00;;;;;15.81;100.00;101373.34;5076517;28;45611;-80
2024/02/15 03:31:30;;;;;;;;;0.00;0.00;;;;;15.77;100.00;101366.53;5078474;28;45397;-80
2024/02/15 03:33:57;;;;;;;;;1.00;1.00;;;;;15.76;100.00;101373.50;5078476;27;45250;-81
2024/02/15 03:36:23;;;;;;;;;0.00;0.00;;;;;15.71;100.00;101371.97;5078508;27;45436;-81
2024/02/15 03:38:48;;;;;;;;;0.00;0.00;;;;;15.73;100.00;101362.25;5077036;28;45439;-81
2024/02/15 03:41:14;;;;;;;;;0.00;0.00;;;;;15.75;100.00;101368.31;5078181;28;45553;-82
2024/02/15 03:43:39;;;;;;;;;0.00;0.00;;;;;15.71;100.00;101361.47;5078111;27;45385;-81
2024/02/15 03:46:07;;;;;;;;;0.00;0.00;;;;;15.68;100.00;101359.81;5076918;28;45388;-80
2024/02/15 03:48:32;;;;;;;;;10.00;10.00;;;;;15.76;100.00;101362.16;5078141;27;47296;-81
2024/02/15 03:50:58;;;;;;;;;0.00;0.00;;;;;15.76;100.00;101360.38;5077798;28;45367;-80
2024/02/15 03:53:24;;;;;;;;;0.00;0.00;;;;;15.73;100.00;101350.00;5078022;28;45375;-81
2024/02/15 03:55:53;;;;;;;;;0.00;0.00;;;;;15.77;100.00;101345.53;5076969;28;45254;-81
2024/02/15 03:58:18;;;;;;;;;0.00;0.00;;;;;15.77;100.00;101354.25;5076234;28;46264;-80
2024/02/15 04:00:44;;;;;;;;;0.00;0.00;;;;;15.74;100.00;101345.63;5076978;27;73069;-81
2024/02/15 04:03:09;;;;;;;;;0.00;0.00;;;;;15.71;100.00;101353.59;5077860;28;45470;-81
2024/02/15 04:05:35;;;;;;;;;0.00;0.00;;;;;15.72;100.00;101344.81;5077420;27;50563;-80
2024/02/15 04:08:02;;;;;;;;;0.00;0.00;;;;;15.69;100.00;101345.78;5077130;28;56433;-80
2024/02/15 04:10:28;;;;;;;;;0.00;0.00;;;;;15.68;100.00;101338.84;5077743;28;45410;-80
2024/02/15 04:12:53;;;;;;;;;0.00;0.00;;;;;15.69;100.00;101337.91;5077566;27;45498;-80
2024/02/15 04:15:19;;;;;;;;;0.00;0.00;;;;;15.63;100.00;101340.78;5076850;28;65054;-81
2024/02/15 04:17:45;;;;;;;;;0.00;0.00;;;;;15.66;100.00;101341.50;5076223;28;48085;-80
2024/02/15 04:20:11;;;;;;;;;0.00;0.00;;;;;15.66;100.00;101332.78;5076452;28;45370;-80
2024/02/15 04:22:37;;;;;;;;;0.00;0.00;;;;;15.59;100.00;101334.81;5076356;28;45339;-80
2024/02/15 04:25:06;;;;;;;;;0.00;0.00;;;;;15.53;100.00;101334.22;5077165;27;45422;-80
2024/02/15 04:27:32;;;;;;;;;0.00;0.00;;;;;15.61;100.00;101335.59;5076941;28;47190;-80
2024/02/15 04:29:57;;;;;;;;;0.00;0.00;;;;;15.48;100.00;101326.50;5077320;28;45326;-80
2024/02/15 04:32:23;;;;;;;;;0.00;0.00;;;;;15.53;100.00;101327.19;5076451;27;69083;-80
2024/02/15 04:34:48;;;;;;;;;0.00;0.00;;;;;15.54;100.00;101325.41;5077170;27;45297;-80
2024/02/15 04:37:14;;;;;;;;;0.00;0.00;;;;;15.54;100.00;101322.78;5075182;28;70789;-80
2024/02/15 04:39:39;;;;;;;;;0.00;0.00;;;;;15.53;100.00;101332.44;5077115;27;45270;-80
2024/02/15 04:42:07;;;;;;;;;10.50;10.50;;;;;15.51;100.00;101325.53;5076817;28;45373;-80
2024/02/15 04:44:35;;;;;;;;;0.00;0.00;;;;;15.61;100.00;101325.09;5077345;27;45357;-80
2024/02/15 04:47:01;;;;;;;;;0.00;0.00;;;;;15.58;100.00;101325.25;5078352;27;45446;-81
2024/02/15 04:49:28;;;;;;;;;0.00;0.00;;;;;15.67;100.00;101322.25;5076385;28;45404;-80
2024/02/15 04:51:54;;;;;;;;;0.00;0.00;;;;;15.68;100.00;101325.72;5077424;28;45441;-81
2024/02/15 04:54:19;;;;;;;;;0.00;0.00;;;;;15.70;100.00;101315.16;5077273;27;45457;-80
2024/02/15 04:56:45;;;;;;;;;0.00;0.00;;;;;15.66;100.00;101323.16;5075903;28;76010;-81
2024/02/15 04:59:15;;;;;;;;;0.00;0.00;;;;;15.63;100.00;101325.88;5077038;27;45402;-80
2024/02/15 05:01:42;;;;;;;;;0.00;0.00;;;;;15.53;100.00;101326.34;5076015;28;45384;-80
2024/02/15 05:04:08;;;;;;;;;0.00;0.00;;;;;15.53;100.00;101324.56;5077115;27;45434;-81
2024/02/15 05:06:33;;;;;;;;;0.00;0.00;;;;;15.57;100.00;101318.28;5076763;28;45419;-80
2024/02/15 05:09:00;;;;;;;;;0.00;0.00;;;;;15.52;100.00;101317.59;5075671;27;71631;-80
2024/02/15 05:11:25;;;;;;;;;0.00;0.00;;;;;15.50;100.00;101314.19;5076876;28;45314;-81
2024/02/15 05:13:50;;;;;;;;;0.00;0.00;;;;;15.42;100.00;101306.63;5076017;28;67572;-80
2024/02/15 05:16:16;;;;;;;;;0.00;0.00;;;;;15.39;100.00;101313.75;5076607;28;45963;-80
2024/02/15 05:18:41;;;;;;;;;0.00;0.00;;;;;15.36;100.00;101311.25;5074989;28;57939;-80
2024/02/15 05:21:09;;;;;;;;;0.00;0.00;;;;;15.29;100.00;101305.41;5075763;28;68103;-80
2024/02/15 05:23:36;;;;;;;;;0.00;0.00;;;;;15.26;100.00;101303.75;5075041;27;45373;-80
2024/02/15 05:26:03;;;;;;;;;0.00;0.00;;;;;15.26;100.00;101305.53;5076423;27;45330;-80
2024/02/15 05:28:28;;;;;;;;;0.00;0.00;;;;;15.25;100.00;101298.59;5076450;27;45437;-81
2024/02/15 05:31:12;;;;;;;;;0.00;0.00;;;;;15.24;100.00;101302.09;5076742;27;45397;-80
2024/02/15 05:33:43;;;;;;;;;0.00;0.00;;;;;15.20;100.00;101301.38;5076754;27;45497;-80
2024/02/15 05:36:10;;;;;;;;;0.00;0.00;;;;;15.18;100.00;101297.97;5076398;27;45548;-80
2024/02/15 05:38:35;;;;;;;;;0.00;0.00;;;;;15.17;100.00;101296.25;5076036;27;45315;-80
2024/02/15 05:41:01;;;;;;;;;0.00;0.00;;;;;15.13;100.00;101299.91;5074708;28;62427;-80
2024/02/15 05:43:26;;;;;;;;;0.00;0.00;;;;;15.12;100.00;101299.94;5076489;27;45334;-80
2024/02/15 05:45:52;;;;;;;;;0.00;0.00;;;;;15.08;100.00;101293.97;5074495;28;75550;-80
2024/02/15 05:48:18;;;;;;;;;0.00;0.00;;;;;15.05;100.00;101297.59;5076292;27;45355;-80
2024/02/15 05:50:43;;;;;;;;;0.00;0.00;;;;;15.02;100.00;101308.19;5075213;28;68979;-80
2024/02/15 05:53:08;;;;;;;;;0.00;0.00;;;;;14.99;100.00;101296.94;5075440;28;60041;-80
2024/02/15 05:55:36;;;;;;;;;0.00;0.00;;;;;14.96;100.00;101284.81;5074745;28;46878;-80
2024/02/15 05:58:02;;;;;;;;;0.00;0.00;;;;;14.91;100.00;101294.63;5076182;28;45410;-80
2024/02/15 06:00:29;;;;;;;;;0.00;0.00;;;;;14.90;100.00;101299.03;5076375;28;45386;-80
2024/02/15 06:02:55;;;;;;;;;0.00;0.00;;;;;14.90;100.00;101287.69;5074908;28;45633;-80
2024/02/15 06:05:21;;;;;;;;;0.00;0.00;;;;;14.88;100.00;101295.59;5075882;28;45427;-81
2024/02/15 06:07:47;;;;;;;;;0.00;0.00;;;;;14.82;100.00;101293.22;5074553;28;45420;-80
2024/02/15 06:10:13;;;;;;;;;0.00;0.00;;;;;14.82;100.00;101294.97;5075534;27;53702;-80
2024/02/15 06:12:38;;;;;;;;;0.00;0.00;;;;;14.80;100.00;101287.19;5076069;27;45422;-80
2024/02/15 06:15:05;;;;;;;;;0.00;0.00;;;;;14.78;100.00;101291.63;5074091;28;56756;-80
2024/02/15 06:17:31;;;;;;;;;0.00;0.00;;;;;14.74;100.00;101281.31;5075905;27;45334;-80
2024/02/15 06:19:57;;;;;;;;;0.00;0.00;;;;;14.71;100.00;101271.81;5076072;28;45335;-81
2024/02/15 06:22:22;;;;;;;;;0.00;0.00;;;;;14.67;100.00;101272.81;5074421;28;45344;-80
2024/02/15 06:24:48;;;;;;;;;0.00;0.00;;;;;14.65;100.00;101274.66;5075325;27;45542;-80
2024/02/15 06:27:15;;;;;;;;;0.00;0.00;;;;;14.62;100.00;101272.16;5076739;27;45315;-80
2024/02/15 06:40:36;;;;;;;;;0.00;0.00;;;;;14.47;100.00;101263.91;5075797;28;45367;-80
2024/02/15 06:43:03;;;;;;;;;0.00;0.00;;;;;14.41;100.00;101268.50;5075021;27;70069;-80
2024/02/15 06:45:31;;;;;;;;;0.00;0.00;;;;;14.38;100.00;101274.72;5075645;27;46953;-80
2024/02/15 06:47:57;;;;;;;;;0.00;0.00;;;;;14.32;100.00;101273.19;5075694;27;45362;-80
2024/02/15 06:50:23;;;;;;;;;0.00;0.00;;;;;14.29;100.00;101273.28;5075814;27;45332;-80
2024/02/15 06:52:49;;;;;;;;;0.00;0.00;;;;;14.27;100.00;101272.50;5075378;28;45427;-80
2024/02/15 06:55:14;;;;;;;;;0.00;0.00;;;;;14.23;100.00;101263.03;5075627;28;45557;-80
2024/02/15 06:57:40;;;;;;;;;0.00;0.00;;;;;14.22;100.00;101265.72;5078914;28;45277;-80
2024/02/15 07:00:07;;;;;;;;;0.00;0.00;;;;;14.20;100.00;101262.28;5079208;28;45443;-80
2024/02/15 07:02:33;;;;;;;;;0.00;0.00;;;;;14.16;100.00;101251.06;5079158;27;45478;-80
2024/02/15 07:04:59;;;;;;;;;0.00;0.00;;;;;14.13;100.00;101248.56;5078507;28;45432;-80
2024/02/15 07:07:25;;;;;;;;;0.00;0.00;;;;;14.12;100.00;101258.19;5077716;28;45624;-80
2024/02/15 07:09:50;;;;;;;;;0.00;0.00;;;;;14.12;100.00;101249.47;5078897;27;45364;-80
2024/02/15 07:12:16;;;;;;;;;0.00;0.00;;;;;14.13;100.00;101238.09;5078807;28;45334;-80
2024/02/15 07:14:41;;;;;;;;;0.00;0.00;;;;;14.11;100.00;101226.81;5078623;28;46174;-80
2024/02/15 07:17:06;;;;;;;;;0.00;0.00;;;;;14.11;100.00;101235.56;5076396;28;74022;-80
2024/02/15 07:19:36;;;;;;;;;0.00;0.00;;;;;14.11;100.00;101239.91;5078292;28;45429;-81
2024/02/15 07:22:02;;;;;;;;;0.00;0.00;;;;;14.10;100.00;101239.06;5078962;28;45398;-80
2024/02/15 07:24:27;;;;;;;;;0.00;0.00;;;;;14.11;100.00;101242.53;5078184;27;47028;-81
2024/02/15 07:26:55;;;;;;;;;0.00;0.00;;;;;14.12;100.00;101239.84;5077621;28;72816;-81
2024/02/15 07:29:23;;;;;;;;;0.00;0.00;;;;;14.15;100.00;101249.34;5078259;27;45393;-80
2024/02/15 07:31:48;;;;;;;;;0.00;0.00;;;;;14.23;100.00;101247.34;5078610;28;45221;-81
2024/02/15 07:34:14;;;;;;;;;0.00;0.00;;;;;14.27;100.00;101248.09;5079065;28;46269;-81
2024/02/15 07:36:42;;;;;;;;;0.00;0.00;;;;;14.35;100.00;101251.25;5078564;27;45361;-81
2024/02/15 07:39:12;;;;;;;;;0.00;0.00;;;;;14.43;100.00;101249.22;5078663;27;45308;-81
2024/02/15 07:41:37;;;;;;;;;0.00;0.00;;;;;14.46;100.00;101248.25;5078291;28;45489;-81
2024/02/15 07:44:03;;;;;;;;;0.00;0.00;;;;;14.47;100.00;101242.13;5078205;28;46103;-81
2024/02/15 07:46:28;;;;;;;;;0.00;0.00;;;;;14.44;100.00;101245.69;5077093;28;45423;-81
2024/02/15 07:48:54;;;;;;;;;0.00;0.00;;;;;14.46;100.00;101237.78;5077776;27;45406;-81
2024/02/15 07:51:22;;;;;;;;;0.00;0.00;;;;;14.47;100.00;101229.03;5077260;28;70185;-81
2024/02/15 07:53:47;;;;;;;;;0.00;0.00;;;;;14.47;100.00;101229.03;5077766;28;48690;-81
2024/02/15 07:56:14;;;;;;;;;0.00;0.00;;;;;14.46;100.00;101224.69;5077885;28;45391;-81
2024/02/15 07:58:41;;;;;;;;;0.00;0.00;;;;;14.46;100.00;101230.75;5078146;28;45393;-81
2024/02/15 08:01:08;;;;;;;;;0.00;0.00;;;;;14.53;100.00;101220.94;5078318;28;45474;-81
2024/02/15 08:03:35;;;;;;;;;0.00;0.00;;;;;14.59;100.00;101212.84;5077484;28;45417;-81
2024/02/15 08:06:00;;;;;;;;;0.00;0.00;;;;;14.56;100.00;101220.81;5077793;28;45305;-81
2024/02/15 08:08:25;;;;;;;;;0.00;0.00;;;;;14.58;100.00;101211.16;5077096;28;45319;-81
2024/02/15 08:10:51;;;;;;;;;0.00;0.00;;;;;14.63;100.00;101203.97;5077070;28;69266;-81
2024/02/15 08:13:17;;;;;;;;;0.00;0.00;;;;;14.66;100.00;101203.84;5076285;28;45465;-81
2024/02/15 08:15:44;;;;;;;;;0.00;0.00;;;;;14.67;100.00;101205.56;5076536;28;45486;-81
2024/02/15 08:18:12;;;;;;;;;0.00;0.00;;;;;14.73;100.00;101214.09;5077465;27;45493;-81
2024/02/15 08:20:37;;;;;;;;;0.00;0.00;;;;;14.71;100.00;101204.53;5076466;28;45427;-81
2024/02/15 08:23:04;;;;;;;;;0.00;0.00;;;;;14.80;100.00;101195.47;5076466;28;75543;-81
2024/02/15 08:25:29;;;;;;;;;0.00;0.00;;;;;14.80;100.00;101179.75;5077271;27;45437;-82
2024/02/15 08:27:55;;;;;;;;;0.00;0.00;;;;;14.90;100.00;101185.47;5078065;28;45363;-81
2024/02/15 08:30:20;;;;;;;;;0.00;0.00;;;;;14.94;100.00;101184.44;5080691;27;70351;-81
2024/02/15 08:32:47;;;;;;;;;0.00;0.00;;;;;14.99;100.00;101176.34;5076872;27;45356;-81
2024/02/15 08:35:13;;;;;;;;;0.00;0.00;;;;;15.09;100.00;101177.72;5077612;27;45373;-81
2024/02/15 08:37:42;;;;;;;;;0.00;0.00;;;;;15.07;100.00;101167.28;5077695;28;45367;-81
2024/02/15 08:40:11;;;;;;;;;0.00;0.00;;;;;15.13;100.00;101168.78;5077410;27;45448;-81
2024/02/15 08:42:40;;;;;;;;;0.00;0.00;;;;;15.18;100.00;101174.72;5076227;28;47067;-81
2024/02/15 08:45:08;;;;;;;;;0.00;0.00;;;;;15.16;100.00;101180.94;5076110;28;45439;-81
2024/02/15 08:47:37;;;;;;;;;0.00;0.00;;;;;15.19;100.00;101165.94;5077102;27;45360;-81
2024/02/15 08:50:04;;;;;;;;;0.00;0.00;;;;;15.24;100.00;101157.88;5075873;28;45420;-81
2024/02/15 08:52:29;;;;;;;;;0.00;0.00;;;;;15.26;100.00;101145.53;5076932;28;45341;-81
2024/02/15 08:54:57;;;;;;;;;0.00;0.00;;;;;15.29;100.00;101148.88;5077014;28;45363;-81
2024/02/15 08:57:22;;;;;;;;;0.00;0.00;;;;;15.36;100.00;101133.75;5077177;28;45330;-81
2024/02/15 08:59:47;;;;;;;;;0.00;0.00;;;;;15.41;100.00;101123.06;5077199;28;45297;-81
2024/02/15 09:02:14;;;;;;;;;0.00;0.00;;;;;15.46;100.00;101121.09;5075495;28;75389;-81
2024/02/15 09:04:40;;;;;;;;;0.00;0.00;;;;;15.46;100.00;101119.31;5076902;28;45332;-81
2024/02/15 09:07:07;;;;;;;;;0.00;0.00;;;;;15.55;100.00;101120.69;5077161;27;45331;-81
2024/02/15 09:09:33;;;;;;;;;0.00;0.00;;;;;15.64;100.00;101122.91;5076765;28;45458;-81
2024/02/15 09:12:05;;;;;;;;;0.00;0.00;;;;;15.73;100.00;101124.28;5075548;28;45643;-81
2024/02/15 09:14:31;;;;;;;;;0.00;0.00;;;;;15.86;100.00;101122.84;5077004;28;45363;-81
2024/02/15 09:16:57;;;;;;;;;0.00;0.00;;;;;15.99;100.00;101128.41;5076885;28;45248;-81
2024/02/15 09:19:24;;;;;;;;;0.00;0.00;;;;;16.11;100.00;101121.72;5075899;28;45342;-81
2024/02/15 09:21:49;;;;;;;;;0.00;0.00;;;;;16.20;100.00;101123.09;5076510;28;46158;-81
2024/02/15 09:24:16;;;;;;;;;0.00;0.00;;;;;16.27;100.00;101127.13;5076042;27;47314;-81
2024/02/15 09:26:41;;;;;;;;;0.00;0.00;;;;;16.39;100.00;101118.66;5075534;28;45338;-81
2024/02/15 09:29:07;;;;;;;;;0.00;0.00;;;;;16.50;100.00;101110.28;5075539;28;45469;-81
2024/02/15 09:31:34;;;;;;;;;0.00;0.00;;;;;16.58;100.00;101112.53;5075168;27;73653;-81
2024/02/15 09:33:59;;;;;;;;;0.00;0.00;;;;;16.64;100.00;101107.84;5076550;27;45255;-81
2024/02/15 09:36:25;;;;;;;;;0.00;0.00;;;;;16.78;100.00;101104.53;5075765;27;68948;-81
2024/02/15 09:38:50;;;;;;;;;0.00;0.00;;;;;16.88;100.00;101107.59;5076523;28;45342;-81
2024/02/15 09:41:16;;;;;;;;;0.00;0.00;;;;;17.04;100.00;101107.69;5075763;27;67449;-81
2024/02/15 09:43:41;;;;;;;;;0.00;0.00;;;;;17.15;100.00;101101.88;5076250;28;45398;-81
2024/02/15 09:46:06;;;;;;;;;0.00;0.00;;;;;17.27;100.00;101106.50;5074039;28;66714;-81
2024/02/15 09:48:32;;;;;;;;;0.00;0.00;;;;;17.41;100.00;101097.91;5075160;27;71302;-81
2024/02/15 09:50:57;;;;;;;;;0.00;0.00;;;;;17.48;100.00;101095.84;5075944;28;45477;-81
2024/02/15 09:53:25;;;;;;;;;0.00;0.00;;;;;17.56;100.00;101098.91;5074448;28;60758;-81
2024/02/15 09:55:54;;;;;;;;;0.00;0.00;;;;;17.66;100.00;101091.34;5076434;27;45374;-81
2024/02/15 09:58:19;;;;;;;;;0.00;0.00;;;;;17.79;100.00;101097.66;5075292;28;45352;-81
2024/02/15 10:00:46;;;;;;;;;0.25;0.25;;;;;17.86;100.00;101096.44;5075823;28;45409;-81
2024/02/15 10:03:16;;;;;;;;;0.00;0.00;;;;;18.04;100.00;101091.97;5076316;28;45378;-81
2024/02/15 10:05:42;;;;;;;;;0.00;0.00;;;;;18.12;100.00;101086.28;5075162;28;45532;-81
2024/02/15 10:08:07;;;;;;;;;0.00;0.00;;;;;18.17;100.00;101093.00;5076635;28;45321;-81
2024/02/15 10:10:33;;;;;;;;;1.50;0.50;;;;;18.27;100.00;101090.69;5075055;27;75651;-81
2024/02/15 10:13:00;;;;;;;;;0.00;0.00;;;;;18.34;100.00;101076.25;5074701;28;45350;-81
2024/02/15 10:15:33;;;;;;;;;0.00;0.00;;;;;18.48;100.00;101074.59;5074663;28;45432;-81
2024/02/15 10:17:59;;;;;;;;;0.00;0.00;;;;;18.54;100.00;101071.66;5075870;28;45514;-82
2024/02/15 10:20:25;;;;;;;;;0.00;0.00;;;;;18.68;100.00;101074.31;5076228;28;45443;-81
2024/02/15 10:23:11;;;;;;;;;0.00;0.00;;;;;18.84;100.00;101071.69;5075813;28;45341;-82
2024/02/15 10:25:41;;;;;;;;;0.00;0.00;;;;;18.95;100.00;101069.28;5074161;27;45390;-81
2024/02/15 10:28:08;;;;;;;;;0.75;0.75;;;;;19.08;100.00;101065.91;5075431;28;45343;-81
2024/02/15 10:30:35;;;;;;;;;4.00;4.00;;;;;19.13;100.00;101056.78;5091467;27;47266;-81
2024/02/15 10:33:01;;;;;;;;;0.00;0.00;;;;;19.22;100.00;101062.44;5079401;27;45367;-82
2024/02/15 10:35:26;;;;;;;;;0.00;0.00;;;;;19.25;100.00;101049.91;5078252;28;45404;-81
2024/02/15 10:38:06;;;;;;;;;0.00;0.00;;;;;19.32;100.00;101053.88;5078810;28;61869;-81
2024/02/15 10:40:32;;;;;;;;;0.00;0.00;;;;;19.40;100.00;101048.13;5078096;28;46945;-81
2024/02/15 10:42:58;;;;;;;;;0.00;0.00;;;;;19.47;100.00;101040.69;5078863;28;45377;-81
2024/02/15 10:45:25;;;;;;;;;0.00;0.00;;;;;19.53;100.00;101035.03;5079235;28;45349;-82
2024/02/15 10:47:50;;;;;;;;;0.00;0.00;;;;;19.59;100.00;101034.63;5077864;28;45332;-81
2024/02/15 10:50:16;;;;;;;;;0.00;0.00;;;;;19.64;100.00;101029.09;5078743;28;45363;-81
2024/02/15 10:52:58;;;;;;;;;0.00;0.00;;;;;19.77;100.00;101029.19;5077773;27;45440;-82
2024/02/15 10:55:41;;;;;;;;;0.00;0.00;;;;;20.08;100.00;101025.47;5079157;28;45306;-81
2024/02/15 10:58:07;;;;;;;;;0.00;0.00;;;;;20.27;100.00;101020.66;5077734;28;45320;-82
2024/02/15 11:00:37;;;;;;;;;0.00;0.00;;;;;20.42;100.00;101012.69;5077717;28;45361;-82
2024/02/15 11:03:07;;;;;;;;;0.00;0.00;;;;;20.60;100.00;101007.97;5078903;28;45391;-81
2024/02/15 11:05:37;;;;;;;;;0.00;0.00;;;;;20.78;100.00;101003.25;5079169;27;45401;-82
2024/02/15 11:08:05;;;;;;;;;0.00;0.00;;;;;20.91;100.00;100998.81;5077477;28;45389;-81
2024/02/15 11:10:30;;;;;;;;;0.00;0.00;;;;;21.02;100.00;100995.44;5085789;28;47522;-81
2024/02/15 11:12:58;;;;;;;;;0.00;0.00;;;;;21.10;100.00;100995.78;5078083;28;45447;-81
2024/02/15 11:15:39;;;;;;;;;0.00;0.00;;;;;21.22;100.00;100988.78;5079051;27;45405;-81
2024/02/15 11:18:05;;;;;;;;;0.00;0.00;;;;;21.34;100.00;100977.34;5079052;27;45465;-82
2024/02/15 11:20:33;;;;;;;;;0.00;0.00;;;;;21.41;100.00;100975.97;5078745;27;46054;-81
2024/02/15 11:23:01;;;;;;;;;0.00;0.00;;;;;21.55;100.00;100972.34;5078767;28;45298;-81
2024/02/15 11:25:36;;;;;;;;;0.00;0.00;;;;;21.72;100.00;100979.06;5081134;27;45238;-82